createdAt,value
2018-08-16T00:00:16.300Z,78.90
2018-08-16T00:02:45.839Z,79.30
2018-08-16T00:05:14.671Z,79.40
2018-08-16T00:07:43.336Z,79.60
2018-08-16T00:10:14.686Z,79.90
2018-08-16T00:12:44.728Z,79.70
2018-08-16T00:15:14.068Z,79.50
2018-08-16T00:17:42.856Z,79.90
2018-08-16T00:20:12.020Z,79.60
2018-08-16T00:22:40.848Z,79.50
2018-08-16T00:25:10.235Z,79.30
2018-08-16T00:27:39.092Z,79.20
2018-08-16T00:30:13.116Z,79.90
2018-08-16T00:32:42.184Z,79.90
2018-08-16T00:35:10.843Z,80.40
2018-08-16T00:37:39.565Z,80.50
2018-08-16T00:40:11.550Z,80.80
2018-08-16T00:42:40.231Z,80.80
2018-08-16T00:45:09.912Z,81.00
2018-08-16T00:47:38.692Z,81.00
2018-08-16T00:50:08.924Z,81.40
2018-08-16T00:52:37.562Z,81.60
2018-08-16T00:55:07.254Z,82.40
2018-08-16T00:57:36.338Z,82.50
2018-08-16T01:00:06.336Z,82.60
2018-08-16T01:02:34.984Z,82.70
2018-08-16T01:05:03.832Z,83.20
2018-08-16T01:07:32.509Z,83.80
2018-08-16T01:10:01.188Z,84.10
2018-08-16T01:12:29.884Z,84.50
2018-08-16T01:14:58.657Z,84.90
2018-08-16T01:17:27.328Z,85.50
2018-08-16T01:19:56.020Z,85.10
2018-08-16T01:22:24.720Z,85.50
2018-08-16T01:24:53.368Z,85.70
2018-08-16T01:27:22.083Z,85.70
2018-08-16T01:29:50.768Z,85.70
2018-08-16T01:32:19.496Z,85.60
2018-08-16T01:34:48.245Z,85.90
2018-08-16T01:37:16.908Z,85.90
2018-08-16T01:39:45.620Z,86.00
2018-08-16T01:42:14.307Z,86.20
2018-08-16T01:44:42.935Z,86.10
2018-08-16T01:47:11.601Z,86.40
2018-08-16T01:49:40.235Z,86.00
2018-08-16T01:52:08.899Z,85.60
2018-08-16T01:54:37.540Z,85.00
2018-08-16T01:57:06.312Z,85.30
2018-08-16T01:59:35.000Z,85.40
2018-08-16T02:02:03.789Z,85.80
2018-08-16T02:04:32.468Z,85.50
2018-08-16T02:07:01.172Z,86.40
2018-08-16T02:09:29.836Z,87.00
2018-08-16T02:11:58.565Z,87.10
2018-08-16T02:14:27.203Z,86.80
2018-08-16T02:16:55.879Z,86.60
2018-08-16T02:19:24.634Z,86.70
2018-08-16T02:21:53.315Z,86.90
2018-08-16T02:24:21.948Z,87.00
2018-08-16T02:26:50.576Z,87.30
2018-08-16T02:29:19.281Z,87.60
2018-08-16T02:31:47.921Z,87.60
2018-08-16T02:34:16.608Z,87.40
2018-08-16T02:36:45.264Z,87.40
2018-08-16T02:39:13.940Z,87.00
2018-08-16T02:41:42.619Z,86.00
2018-08-16T02:44:11.317Z,85.20
2018-08-16T02:46:39.959Z,85.10
2018-08-16T02:49:08.608Z,85.50
2018-08-16T02:51:37.260Z,86.30
2018-08-16T02:54:05.945Z,86.30
2018-08-16T02:56:34.653Z,86.50
2018-08-16T02:59:03.367Z,86.80
2018-08-16T03:01:32.056Z,86.90
2018-08-16T03:04:00.753Z,87.00
2018-08-16T03:06:29.454Z,87.10
2018-08-16T03:08:58.116Z,87.80
2018-08-16T03:11:26.784Z,88.00
2018-08-16T03:13:55.424Z,88.00
2018-08-16T03:16:24.091Z,88.00
2018-08-16T03:18:52.772Z,87.90
2018-08-16T03:21:21.432Z,87.40
2018-08-16T03:23:50.091Z,86.90
2018-08-16T03:26:18.744Z,86.90
2018-08-16T03:28:47.384Z,87.50
2018-08-16T03:31:16.156Z,88.50
2018-08-16T03:33:44.793Z,88.50
2018-08-16T03:36:13.500Z,88.20
2018-08-16T03:38:42.199Z,87.60
2018-08-16T03:41:10.883Z,87.70
2018-08-16T03:43:39.531Z,88.60
2018-08-16T03:46:08.184Z,89.20
2018-08-16T03:48:36.815Z,89.80
2018-08-16T03:51:05.944Z,90.20
2018-08-16T03:53:34.629Z,89.80
2018-08-16T03:56:03.352Z,89.60
2018-08-16T03:58:31.995Z,88.60
2018-08-16T04:01:00.672Z,88.60
2018-08-16T04:03:29.300Z,88.60
2018-08-16T04:05:57.964Z,89.00
2018-08-16T04:08:26.612Z,89.20
2018-08-16T04:10:55.272Z,89.70
2018-08-16T04:13:23.936Z,90.40
2018-08-16T04:15:52.599Z,90.30
2018-08-16T04:18:21.280Z,90.50
2018-08-16T04:20:49.953Z,90.00
2018-08-16T04:23:18.640Z,90.00
2018-08-16T04:25:47.299Z,90.20
2018-08-16T04:28:15.939Z,90.40
2018-08-16T04:30:44.576Z,90.50
2018-08-16T04:33:13.256Z,90.50
2018-08-16T04:35:41.931Z,90.60
2018-08-16T04:38:10.585Z,91.00
2018-08-16T04:40:39.273Z,90.90
2018-08-16T04:43:07.932Z,90.80
2018-08-16T04:45:36.592Z,90.60
2018-08-16T04:48:05.532Z,90.80
2018-08-16T04:50:34.288Z,90.70
2018-08-16T04:53:03.004Z,90.80
2018-08-16T04:55:31.649Z,90.80
2018-08-16T04:58:00.332Z,90.80
2018-08-16T05:00:29.014Z,90.80
2018-08-16T05:02:57.752Z,90.80
2018-08-16T05:05:26.412Z,90.90
2018-08-16T05:07:55.148Z,90.70
2018-08-16T05:10:23.800Z,90.60
2018-08-16T05:12:52.505Z,90.20
2018-08-16T05:15:21.164Z,90.40
2018-08-16T05:17:49.864Z,90.40
2018-08-16T05:20:18.514Z,90.40
2018-08-16T05:22:47.159Z,90.90
2018-08-16T05:25:15.836Z,90.50
2018-08-16T05:27:44.480Z,90.80
2018-08-16T05:30:13.292Z,90.90
2018-08-16T05:32:42.089Z,91.00
2018-08-16T05:35:10.853Z,91.20
2018-08-16T05:37:39.515Z,91.40
2018-08-16T05:40:09.801Z,92.10
2018-08-16T05:42:38.983Z,92.80
2018-08-16T05:45:08.192Z,93.20
2018-08-16T05:47:37.394Z,93.00
2018-08-16T05:50:09.212Z,91.80
2018-08-16T05:52:37.952Z,90.60
2018-08-16T05:55:07.208Z,89.70
2018-08-16T05:57:35.961Z,88.50
2018-08-16T06:00:07.318Z,88.50
2018-08-16T06:02:35.980Z,88.10
2018-08-16T06:05:05.359Z,86.80
2018-08-16T06:07:34.209Z,86.10
2018-08-16T06:10:03.032Z,85.70
2018-08-16T06:12:32.373Z,85.90
2018-08-16T06:15:01.036Z,85.20
2018-08-16T06:17:29.696Z,85.40
2018-08-16T06:19:58.365Z,85.80
2018-08-16T06:22:27.099Z,85.70
2018-08-16T06:24:55.825Z,86.00
2018-08-16T06:27:24.480Z,86.20
2018-08-16T06:29:53.166Z,85.70
2018-08-16T06:32:21.861Z,82.80
2018-08-16T06:34:50.589Z,79.60
2018-08-16T06:37:19.279Z,77.20
2018-08-16T06:39:52.301Z,74.50
2018-08-16T06:42:25.621Z,71.80
2018-08-16T06:44:54.349Z,69.90
2018-08-16T06:47:23.087Z,67.90
2018-08-16T06:49:51.737Z,65.90
2018-08-16T06:52:20.476Z,63.80
2018-08-16T06:54:49.152Z,62.30
2018-08-16T06:57:17.864Z,60.00
2018-08-16T06:59:47.010Z,58.80
2018-08-16T07:02:15.721Z,57.50
2018-08-16T07:04:44.423Z,56.90
2018-08-16T07:07:13.088Z,55.70
2018-08-16T07:09:41.743Z,54.70
2018-08-16T07:12:10.592Z,53.40
2018-08-16T07:14:39.284Z,52.60
2018-08-16T07:17:08.476Z,52.00
2018-08-16T07:19:37.237Z,51.70
2018-08-16T07:22:06.009Z,50.90
2018-08-16T07:24:34.785Z,50.60
2018-08-16T07:27:03.673Z,50.30
2018-08-16T07:29:32.346Z,50.00
2018-08-16T07:32:01.444Z,49.10
2018-08-16T07:34:30.119Z,48.40
2018-08-16T07:36:58.797Z,48.40
2018-08-16T07:39:27.460Z,48.20
2018-08-16T07:41:56.167Z,47.90
2018-08-16T07:44:24.870Z,47.80
2018-08-16T07:46:53.541Z,47.00
2018-08-16T07:49:22.320Z,47.00
2018-08-16T07:51:51.037Z,46.70
2018-08-16T07:54:19.750Z,46.80
2018-08-16T07:56:48.398Z,47.10
2018-08-16T07:59:17.110Z,47.20
2018-08-16T08:01:45.820Z,47.90
2018-08-16T08:04:14.503Z,48.10
2018-08-16T08:06:43.188Z,48.60
2018-08-16T08:09:12.024Z,48.80
2018-08-16T08:11:40.758Z,49.10
2018-08-16T08:14:09.432Z,49.30
2018-08-16T08:16:38.137Z,49.80
2018-08-16T08:19:06.912Z,49.80
2018-08-16T08:21:35.600Z,49.60
2018-08-16T08:24:04.324Z,49.90
2018-08-16T08:26:33.057Z,50.00
2018-08-16T08:29:01.776Z,50.40
2018-08-16T08:31:30.490Z,50.20
2018-08-16T08:33:59.164Z,50.70
2018-08-16T08:36:38.787Z,50.40
2018-08-16T08:39:08.958Z,50.50
2018-08-16T08:41:38.583Z,49.70
2018-08-16T08:44:27.255Z,49.60
2018-08-16T08:46:56.112Z,50.50
2018-08-16T08:49:24.840Z,50.70
2018-08-16T08:51:54.213Z,50.80
2018-08-16T08:54:36.489Z,50.50
2018-08-16T08:57:16.011Z,49.30
2018-08-16T08:59:44.749Z,50.20
2018-08-16T09:02:13.909Z,49.20
2018-08-16T09:04:42.715Z,49.20
2018-08-16T09:07:12.872Z,49.40
2018-08-16T09:10:55.180Z,48.20
2018-08-16T09:13:35.635Z,49.30
2018-08-16T09:16:12.250Z,50.10
2018-08-16T09:18:41.086Z,48.90
2018-08-16T09:21:12.952Z,47.80
2018-08-16T09:23:41.718Z,47.20
2018-08-16T09:26:15.810Z,47.60
2018-08-16T09:28:44.592Z,47.30
2018-08-16T09:31:24.520Z,47.20
2018-08-16T09:34:04.113Z,46.70
2018-08-16T09:36:33.026Z,46.30
2018-08-16T09:39:01.778Z,45.80
2018-08-16T09:41:30.557Z,45.70
2018-08-16T09:43:59.204Z,45.80
2018-08-16T09:47:22.069Z,45.80
2018-08-16T09:49:51.512Z,45.10
2018-08-16T09:52:21.009Z,45.00
2018-08-16T09:54:50.188Z,44.80
2018-08-16T09:57:19.008Z,45.20
2018-08-16T09:59:47.700Z,45.10
2018-08-16T10:02:17.594Z,45.60
2018-08-16T10:04:46.262Z,44.90
2018-08-16T10:07:14.919Z,45.40
2018-08-16T10:09:43.609Z,45.30
2018-08-16T10:12:12.414Z,44.50
2018-08-16T10:14:41.069Z,44.30
2018-08-16T10:17:09.728Z,44.50
2018-08-16T10:19:38.400Z,44.20
2018-08-16T10:22:07.149Z,44.10
2018-08-16T10:24:35.799Z,44.00
2018-08-16T10:27:04.735Z,44.40
2018-08-16T10:29:33.429Z,44.50
2018-08-16T10:32:02.112Z,45.20
2018-08-16T10:34:30.796Z,44.00
2018-08-16T10:36:59.455Z,44.00
2018-08-16T10:39:28.095Z,44.00
2018-08-16T10:41:56.765Z,43.60
2018-08-16T10:44:25.458Z,43.00
2018-08-16T10:46:54.138Z,43.10
2018-08-16T10:49:22.792Z,42.20
2018-08-16T10:51:51.522Z,43.30
2018-08-16T10:54:20.196Z,42.40
2018-08-16T10:56:48.891Z,41.70
2018-08-16T10:59:17.540Z,41.30
2018-08-16T11:01:46.228Z,41.50
2018-08-16T11:04:14.922Z,40.60
2018-08-16T11:06:43.593Z,40.60
2018-08-16T11:09:12.245Z,41.40
2018-08-16T11:11:40.889Z,41.60
2018-08-16T11:14:09.676Z,40.80
2018-08-16T11:16:38.364Z,40.10
2018-08-16T11:19:07.093Z,41.90
2018-08-16T11:21:35.781Z,39.90
2018-08-16T11:24:04.493Z,41.40
2018-08-16T11:26:33.144Z,40.50
2018-08-16T11:29:01.826Z,41.10
2018-08-16T11:31:30.479Z,40.30
2018-08-16T11:33:59.460Z,40.20
2018-08-16T11:36:28.128Z,40.00
2018-08-16T11:38:57.814Z,40.30
2018-08-16T11:41:26.501Z,40.40
2018-08-16T11:43:55.147Z,39.50
2018-08-16T11:46:24.424Z,39.50
2018-08-16T11:48:53.160Z,40.00
2018-08-16T11:51:22.909Z,40.10
2018-08-16T11:53:52.031Z,39.60
2018-08-16T11:56:20.895Z,39.30
2018-08-16T11:58:50.228Z,39.50
2018-08-16T12:01:19.274Z,39.40
2018-08-16T12:03:47.944Z,40.70
2018-08-16T12:06:16.696Z,39.50
2018-08-16T12:08:45.323Z,40.10
2018-08-16T12:11:14.090Z,40.10
2018-08-16T12:13:42.792Z,39.30
2018-08-16T12:16:12.251Z,38.60
2018-08-16T12:18:41.016Z,39.70
2018-08-16T12:21:09.699Z,38.80
2018-08-16T12:23:38.397Z,38.50
2018-08-16T12:26:08.025Z,39.90
2018-08-16T12:28:36.719Z,38.70
2018-08-16T12:31:05.368Z,39.50
2018-08-16T12:33:34.019Z,40.20
2018-08-16T12:36:02.768Z,39.60
2018-08-16T12:38:31.466Z,40.00
2018-08-16T12:41:00.204Z,39.60
2018-08-16T12:43:34.352Z,40.10
2018-08-16T12:46:03.009Z,40.60
2018-08-16T12:48:31.741Z,41.10
2018-08-16T12:51:00.628Z,40.80
2018-08-16T12:53:30.116Z,41.00
2018-08-16T12:55:58.869Z,40.00
2018-08-16T12:58:27.637Z,40.00
2018-08-16T13:00:56.313Z,39.60
2018-08-16T13:03:24.965Z,39.00
2018-08-16T13:05:53.659Z,39.30
2018-08-16T13:08:22.341Z,39.40
2018-08-16T13:10:51.028Z,39.50
2018-08-16T13:13:19.693Z,39.80
2018-08-16T13:15:48.367Z,40.70
2018-08-16T13:18:17.074Z,41.10
2018-08-16T13:20:46.116Z,41.00
2018-08-16T13:23:15.369Z,40.60
2018-08-16T13:25:44.081Z,39.90
2018-08-16T13:28:13.067Z,40.00
2018-08-16T13:30:41.740Z,39.30
2018-08-16T13:33:10.452Z,39.60
2018-08-16T13:35:39.129Z,39.20
2018-08-16T13:38:07.821Z,39.30
2018-08-16T13:40:36.552Z,39.00
2018-08-16T13:43:05.250Z,39.20
2018-08-16T13:45:33.975Z,38.50
2018-08-16T13:48:03.393Z,38.00
2018-08-16T13:50:32.052Z,38.80
2018-08-16T13:53:00.765Z,39.20
2018-08-16T13:55:29.466Z,38.70
2018-08-16T13:57:58.109Z,39.00
2018-08-16T14:00:26.776Z,38.80
2018-08-16T14:02:55.495Z,39.00
2018-08-16T14:05:24.216Z,39.20
2018-08-16T14:07:52.880Z,38.80
2018-08-16T14:10:21.581Z,38.40
2018-08-16T14:12:50.245Z,38.50
2018-08-16T14:15:20.406Z,38.20
2018-08-16T14:17:49.364Z,38.60
2018-08-16T14:20:18.064Z,38.10
2018-08-16T14:22:46.752Z,38.40
2018-08-16T14:25:15.457Z,38.80
2018-08-16T14:27:44.256Z,39.20
2018-08-16T14:30:14.073Z,39.10
2018-08-16T14:32:42.745Z,39.00
2018-08-16T14:35:11.527Z,39.40
2018-08-16T14:37:40.190Z,39.60
2018-08-16T14:40:09.667Z,39.40
2018-08-16T14:42:38.781Z,39.30
2018-08-16T14:45:08.009Z,39.30
2018-08-16T14:47:40.451Z,40.10
2018-08-16T14:50:09.096Z,40.00
2018-08-16T14:52:37.758Z,40.40
2018-08-16T14:55:06.418Z,40.40
2018-08-16T14:57:36.593Z,40.90
2018-08-16T15:00:06.100Z,40.70
2018-08-16T15:02:34.790Z,40.70
2018-08-16T15:05:04.116Z,41.70
2018-08-16T15:07:32.792Z,41.40
2018-08-16T15:10:01.591Z,41.30
2018-08-16T15:12:30.232Z,41.60
2018-08-16T15:14:58.917Z,41.10
2018-08-16T15:17:27.575Z,41.30
2018-08-16T15:19:56.217Z,42.20
2018-08-16T15:22:25.064Z,42.30
2018-08-16T15:24:53.721Z,42.10
2018-08-16T15:27:22.428Z,42.40
2018-08-16T15:29:51.064Z,42.30
2018-08-16T15:32:19.780Z,43.10
2018-08-16T15:34:48.419Z,43.30
2018-08-16T15:37:17.112Z,43.70
2018-08-16T15:39:45.744Z,43.70
2018-08-16T15:42:14.427Z,43.00
2018-08-16T15:44:43.061Z,43.20
2018-08-16T15:47:11.739Z,43.50
2018-08-16T15:49:40.497Z,43.80
2018-08-16T15:52:09.169Z,43.80
2018-08-16T15:54:37.802Z,44.00
2018-08-16T15:57:06.539Z,44.00
2018-08-16T15:59:35.205Z,44.30
2018-08-16T16:02:03.893Z,44.60
2018-08-16T16:04:32.563Z,44.80
2018-08-16T16:07:01.305Z,45.00
2018-08-16T16:09:30.545Z,45.20
2018-08-16T16:11:59.222Z,45.50
2018-08-16T16:14:27.872Z,45.60
2018-08-16T16:16:56.567Z,45.80
2018-08-16T16:19:25.263Z,46.50
2018-08-16T16:21:53.903Z,46.50
2018-08-16T16:24:22.583Z,45.70
2018-08-16T16:26:51.242Z,45.50
2018-08-16T16:29:19.920Z,45.50
2018-08-16T16:31:48.596Z,45.60
2018-08-16T16:34:17.230Z,46.30
2018-08-16T16:36:45.892Z,46.70
2018-08-16T16:39:14.599Z,47.00
2018-08-16T16:41:43.257Z,46.70
2018-08-16T16:44:11.889Z,47.10
2018-08-16T16:46:40.611Z,47.20
2018-08-16T16:49:09.365Z,48.00
2018-08-16T16:51:38.034Z,48.20
2018-08-16T16:54:06.724Z,49.10
2018-08-16T16:56:35.426Z,48.70
2018-08-16T16:59:04.219Z,49.40
2018-08-16T17:01:32.911Z,48.90
2018-08-16T17:04:01.629Z,48.30
2018-08-16T17:06:30.277Z,47.90
2018-08-16T17:08:58.972Z,49.10
2018-08-16T17:11:27.654Z,49.80
2018-08-16T17:13:56.297Z,49.90
2018-08-16T17:16:24.938Z,50.40
2018-08-16T17:18:53.588Z,50.20
2018-08-16T17:21:22.285Z,50.30
2018-08-16T17:23:50.989Z,51.20
2018-08-16T17:26:19.707Z,51.90
2018-08-16T17:28:48.363Z,52.20
2018-08-16T17:31:17.021Z,52.70
2018-08-16T17:33:45.663Z,52.90
2018-08-16T17:36:14.461Z,52.50
2018-08-16T17:38:43.088Z,52.90
2018-08-16T17:41:11.806Z,53.50
2018-08-16T17:43:40.394Z,53.60
2018-08-16T17:46:09.690Z,54.00
2018-08-16T17:48:38.524Z,54.20
2018-08-16T17:51:07.205Z,54.80
2018-08-16T17:53:35.909Z,55.10
2018-08-16T17:56:04.753Z,55.80
2018-08-16T17:58:33.491Z,56.10
2018-08-16T18:01:02.271Z,56.50
2018-08-16T18:03:30.925Z,56.80
2018-08-16T18:05:59.537Z,57.20
2018-08-16T18:08:28.132Z,57.60
2018-08-16T18:10:56.923Z,57.80
2018-08-16T18:13:25.589Z,58.00
2018-08-16T18:15:54.851Z,58.30
2018-08-16T18:18:23.504Z,58.50
2018-08-16T18:20:52.233Z,58.80
2018-08-16T18:23:21.255Z,59.20
2018-08-16T18:25:50.840Z,59.50
2018-08-16T18:28:19.448Z,59.80
2018-08-16T18:30:49.839Z,60.50
2018-08-16T18:33:21.026Z,61.20
2018-08-16T18:35:51.718Z,61.70
2018-08-16T18:38:20.500Z,62.40
2018-08-16T18:40:49.127Z,63.10
2018-08-16T18:43:17.724Z,62.20
2018-08-16T18:45:46.327Z,62.30
2018-08-16T18:48:15.347Z,62.40
2018-08-16T18:50:44.204Z,62.00
2018-08-16T18:53:12.851Z,61.70
2018-08-16T18:55:41.480Z,63.20
2018-08-16T18:58:10.097Z,63.30
2018-08-16T19:00:38.821Z,63.80
2018-08-16T19:03:07.478Z,64.40
2018-08-16T19:05:36.164Z,64.90
2018-08-16T19:08:04.927Z,65.60
2018-08-16T19:10:33.543Z,66.00
2018-08-16T19:13:02.459Z,66.30
2018-08-16T19:15:31.084Z,67.30
2018-08-16T19:17:59.693Z,68.00
2018-08-16T19:20:42.426Z,69.00
2018-08-16T19:23:11.468Z,70.00
2018-08-16T19:25:40.086Z,70.20
2018-08-16T19:28:08.841Z,70.90
2018-08-16T19:30:38.111Z,71.40
2018-08-16T19:33:07.550Z,71.80
2018-08-16T19:35:36.855Z,71.20
2018-08-16T19:38:06.895Z,70.80
2018-08-16T19:40:35.928Z,71.00
2018-08-16T19:43:05.366Z,71.40
2018-08-16T19:45:34.652Z,71.50
2018-08-16T19:48:04.113Z,71.50
2018-08-16T19:50:33.369Z,71.20
2018-08-16T19:53:02.393Z,71.30
2018-08-16T19:55:31.381Z,71.30
2018-08-16T19:58:00.801Z,70.80
2018-08-16T20:00:29.636Z,70.50
2018-08-16T20:02:59.030Z,71.00
2018-08-16T20:05:28.050Z,72.50
2018-08-16T20:07:57.555Z,74.00
2018-08-16T20:10:28.136Z,74.70
2018-08-16T20:12:57.867Z,74.50
2018-08-16T20:15:28.860Z,74.70
2018-08-16T20:17:57.630Z,74.90
2018-08-16T20:20:26.356Z,74.60
2018-08-16T20:22:57.586Z,74.40
2018-08-16T20:25:30.640Z,74.60
2018-08-16T20:27:59.421Z,75.40
2018-08-16T20:30:28.136Z,76.60
2018-08-16T20:32:56.827Z,77.40
2018-08-16T20:35:25.475Z,78.20
2018-08-16T20:37:54.096Z,78.50
2018-08-16T20:40:22.739Z,79.10
2018-08-16T20:42:51.479Z,79.50
2018-08-16T20:45:20.164Z,79.80
2018-08-16T20:47:48.839Z,79.80
2018-08-16T20:50:17.508Z,79.80
2018-08-16T20:52:46.139Z,80.10
2018-08-16T20:55:14.745Z,80.60
2018-08-16T20:57:43.532Z,80.80
2018-08-16T21:00:12.340Z,81.00
2018-08-16T21:02:40.952Z,81.40
2018-08-16T21:05:09.779Z,81.80
2018-08-16T21:07:38.436Z,81.80
2018-08-16T21:10:08.201Z,81.30
2018-08-16T21:12:36.889Z,80.80
2018-08-16T21:15:06.521Z,80.50
2018-08-16T21:17:35.105Z,80.30
2018-08-16T21:20:04.093Z,80.10
2018-08-16T21:22:33.127Z,80.20
2018-08-16T21:25:01.769Z,80.70
2018-08-16T21:27:30.391Z,80.50
2018-08-16T21:29:59.035Z,80.90
2018-08-16T21:32:27.652Z,81.60
2018-08-16T21:34:56.268Z,82.00
2018-08-16T21:37:24.899Z,82.10
2018-08-16T21:39:53.519Z,82.70
2018-08-16T21:42:22.117Z,83.00
2018-08-16T21:44:50.729Z,82.80
2018-08-16T21:47:19.370Z,82.50
2018-08-16T21:50:07.680Z,81.90
2018-08-16T21:52:45.097Z,81.80
2018-08-16T21:55:21.915Z,82.70
2018-08-16T21:57:52.145Z,83.20
2018-08-16T22:00:56.271Z,83.50
2018-08-16T22:03:27.196Z,83.80
2018-08-16T22:06:07.520Z,84.10
2018-08-16T22:08:48.312Z,84.70
2018-08-16T22:11:20.653Z,85.20
2018-08-16T22:13:52.756Z,85.40
2018-08-16T22:16:27.428Z,86.00
2018-08-16T22:18:56.944Z,86.80
2018-08-16T22:21:29.932Z,86.80
2018-08-16T22:24:02.113Z,86.80
2018-08-16T22:26:31.552Z,86.70
2018-08-16T22:29:00.295Z,86.20
2018-08-16T22:31:29.324Z,85.90
2018-08-16T22:33:58.037Z,85.60
2018-08-16T22:36:26.723Z,85.70
2018-08-16T22:38:55.404Z,86.00
2018-08-16T22:41:24.056Z,86.40
2018-08-16T22:43:52.749Z,86.40
2018-08-16T22:46:21.405Z,86.60
2018-08-16T22:48:50.051Z,86.40
2018-08-16T22:51:18.713Z,86.60
2018-08-16T22:53:47.388Z,86.30
2018-08-16T22:56:16.063Z,86.50
2018-08-16T22:58:44.744Z,86.00
2018-08-16T23:01:13.444Z,86.10
2018-08-16T23:03:42.156Z,86.30
2018-08-16T23:06:10.885Z,87.00
2018-08-16T23:08:39.556Z,87.20
2018-08-16T23:11:08.196Z,87.10
2018-08-16T23:13:37.175Z,86.80
2018-08-16T23:16:05.835Z,86.60
2018-08-16T23:18:34.517Z,87.10
2018-08-16T23:21:03.207Z,87.20
2018-08-16T23:23:31.857Z,87.40
2018-08-16T23:26:00.544Z,87.90
2018-08-16T23:28:29.279Z,87.40
2018-08-16T23:30:57.968Z,87.50
2018-08-16T23:33:26.620Z,87.30
2018-08-16T23:35:55.293Z,87.60
2018-08-16T23:38:23.977Z,87.80
2018-08-16T23:40:52.641Z,88.10
2018-08-16T23:43:21.299Z,88.80
2018-08-16T23:45:49.972Z,89.20
2018-08-16T23:48:32.068Z,90.00
2018-08-16T23:51:01.716Z,90.00
2018-08-16T23:53:30.417Z,90.10
2018-08-16T23:55:59.105Z,90.10
2018-08-16T23:58:27.775Z,89.40
